createdAt,value
2022-08-21T00:01:31.781Z,2.40
2022-08-21T00:03:36.907Z,2.10
2022-08-21T00:05:44.957Z,2.20
2022-08-21T00:07:49.867Z,2.00
2022-08-21T00:09:54.717Z,2.30
2022-08-21T00:11:59.471Z,2.40
2022-08-21T00:14:04.875Z,2.40
2022-08-21T00:16:09.799Z,2.30
2022-08-21T00:18:15.366Z,2.40
2022-08-21T00:20:20.659Z,2.40
2022-08-21T00:22:25.637Z,2.50
2022-08-21T00:24:30.321Z,2.20
2022-08-21T00:26:35.076Z,2.60
2022-08-21T00:28:41.955Z,2.60
2022-08-21T00:30:46.806Z,2.40
2022-08-21T00:32:52.280Z,2.60
2022-08-21T00:34:57.104Z,2.50
2022-08-21T00:37:01.812Z,2.60
2022-08-21T00:39:08.169Z,2.70
2022-08-21T00:41:36.563Z,2.80
2022-08-21T00:43:39.640Z,3.10
2022-08-21T00:45:44.920Z,2.90
2022-08-21T00:47:51.267Z,2.80
2022-08-21T00:49:55.889Z,3.20
2022-08-21T00:52:02.452Z,2.90
2022-08-21T00:54:16.101Z,2.90
2022-08-21T00:56:25.458Z,2.80
2022-08-21T00:58:32.486Z,3.00
2022-08-21T01:00:40.988Z,3.00
2022-08-21T01:02:46.399Z,3.00
2022-08-21T01:04:51.121Z,3.00
2022-08-21T01:06:56.099Z,3.00
2022-08-21T01:09:00.829Z,3.10
2022-08-21T01:11:06.411Z,3.10
2022-08-21T01:13:15.142Z,3.20
2022-08-21T01:15:22.943Z,2.90
2022-08-21T01:17:29.576Z,2.80
2022-08-21T01:19:34.517Z,3.20
2022-08-21T01:21:39.514Z,3.20
2022-08-21T01:23:46.340Z,3.10
2022-08-21T01:25:51.077Z,3.50
2022-08-21T01:27:56.108Z,3.20
2022-08-21T01:30:08.736Z,3.40
2022-08-21T01:32:17.340Z,3.10
2022-08-21T01:34:22.137Z,3.20
2022-08-21T01:36:28.130Z,3.40
2022-08-21T01:38:33.667Z,3.50
2022-08-21T01:40:38.408Z,3.40
2022-08-21T01:42:43.132Z,3.40
2022-08-21T01:44:48.017Z,3.40
2022-08-21T01:46:55.313Z,3.40
2022-08-21T01:49:03.147Z,3.20
2022-08-21T01:51:11.423Z,3.20
2022-08-21T01:53:16.121Z,3.30
2022-08-21T01:55:22.873Z,3.50
2022-08-21T01:57:27.754Z,3.20
2022-08-21T01:59:33.575Z,3.20
2022-08-21T02:01:38.315Z,3.30
2022-08-21T02:03:43.265Z,3.00
2022-08-21T02:05:50.843Z,3.10
2022-08-21T02:07:56.553Z,2.70
2022-08-21T02:10:01.215Z,2.70
2022-08-21T02:12:06.575Z,3.10
2022-08-21T02:14:12.086Z,3.00
2022-08-21T02:16:19.317Z,3.20
2022-08-21T02:18:24.421Z,3.30
2022-08-21T02:20:32.017Z,3.30
2022-08-21T02:22:36.847Z,3.70
2022-08-21T02:24:55.072Z,3.40
2022-08-21T02:27:00.070Z,3.40
2022-08-21T02:29:05.631Z,3.10
2022-08-21T02:31:10.833Z,3.30
2022-08-21T02:33:16.387Z,3.20
2022-08-21T02:35:22.690Z,3.10
2022-08-21T02:37:27.646Z,3.10
2022-08-21T02:39:32.446Z,2.80
2022-08-21T02:41:37.126Z,3.00
2022-08-21T02:43:42.310Z,3.00
2022-08-21T02:45:50.083Z,2.90
2022-08-21T02:47:56.882Z,2.80
2022-08-21T02:50:05.439Z,2.70
2022-08-21T02:52:10.114Z,2.90
2022-08-21T02:54:14.826Z,2.90
2022-08-21T02:56:21.860Z,3.10
2022-08-21T02:58:29.520Z,2.70
2022-08-21T03:00:36.582Z,2.90
2022-08-21T03:02:41.866Z,2.90
2022-08-21T03:04:46.895Z,3.20
2022-08-21T03:06:51.687Z,2.80
2022-08-21T03:08:56.441Z,3.00
2022-08-21T03:11:01.101Z,2.90
2022-08-21T03:13:05.807Z,3.00
2022-08-21T03:15:13.736Z,2.80
2022-08-21T03:17:18.551Z,2.70
2022-08-21T03:19:34.447Z,2.60
2022-08-21T03:21:39.219Z,2.60
2022-08-21T03:23:44.118Z,2.60
2022-08-21T03:25:49.707Z,2.40
2022-08-21T03:27:58.707Z,2.40
2022-08-21T03:30:06.802Z,2.80
2022-08-21T03:32:11.479Z,2.60
2022-08-21T03:34:16.163Z,2.50
2022-08-21T03:36:20.844Z,2.90
2022-08-21T03:38:26.759Z,2.90
2022-08-21T03:40:31.643Z,2.70
2022-08-21T03:42:36.437Z,2.70
2022-08-21T03:44:41.087Z,2.60
2022-08-21T03:46:45.811Z,2.50
2022-08-21T03:48:50.462Z,2.50
2022-08-21T03:50:58.192Z,2.60
2022-08-21T03:53:03.345Z,2.20
2022-08-21T03:55:09.120Z,2.10
2022-08-21T03:57:14.484Z,2.00
2022-08-21T03:59:19.235Z,1.90
2022-08-21T04:01:24.209Z,1.90
2022-08-21T04:03:30.009Z,1.70
2022-08-21T04:05:34.728Z,2.00
2022-08-21T04:07:39.526Z,1.50
2022-08-21T04:09:44.203Z,1.60
2022-08-21T04:11:48.973Z,1.50
2022-08-21T04:13:53.634Z,1.60
2022-08-21T04:15:58.761Z,1.50
2022-08-21T04:18:03.861Z,1.50
2022-08-21T04:20:09.880Z,1.50
2022-08-21T04:22:16.341Z,1.60
2022-08-21T04:24:21.001Z,1.50
2022-08-21T04:26:25.742Z,1.60
2022-08-21T04:28:31.270Z,1.40
2022-08-21T04:30:36.009Z,1.50
2022-08-21T04:32:42.767Z,1.50
2022-08-21T04:34:47.453Z,1.40
2022-08-21T04:36:52.103Z,1.50
2022-08-21T04:38:56.900Z,1.70
2022-08-21T04:41:05.304Z,1.70
2022-08-21T04:43:11.660Z,1.80
2022-08-21T04:45:25.562Z,2.10
2022-08-21T04:47:41.626Z,1.50
2022-08-21T04:49:55.107Z,1.70
2022-08-21T04:52:00.212Z,1.70
2022-08-21T04:54:10.377Z,1.90
2022-08-21T04:56:22.965Z,1.70
2022-08-21T04:58:29.879Z,1.90
2022-08-21T05:00:34.906Z,2.00
2022-08-21T05:02:40.565Z,1.80
2022-08-21T05:04:52.222Z,2.00
2022-08-21T05:07:03.163Z,2.10
2022-08-21T05:09:09.213Z,2.00
2022-08-21T05:11:14.069Z,2.10
2022-08-21T05:13:18.974Z,2.00
2022-08-21T05:15:23.717Z,1.90
2022-08-21T05:17:28.453Z,2.10
2022-08-21T05:19:33.403Z,1.90
2022-08-21T05:21:39.975Z,1.80
2022-08-21T05:23:44.662Z,1.90
2022-08-21T05:25:50.816Z,2.30
2022-08-21T05:27:55.687Z,2.20
2022-08-21T05:30:03.660Z,2.10
2022-08-21T05:32:13.851Z,2.20
2022-08-21T05:34:21.695Z,2.20
2022-08-21T05:36:26.669Z,2.30
2022-08-21T05:38:31.359Z,2.10
2022-08-21T05:40:36.097Z,2.40
2022-08-21T05:42:40.917Z,2.50
2022-08-21T05:44:45.697Z,2.30
2022-08-21T05:46:53.561Z,2.30
2022-08-21T05:48:58.242Z,2.30
2022-08-21T05:51:08.108Z,2.50
2022-08-21T05:53:14.563Z,2.40
2022-08-21T05:55:22.502Z,2.60
2022-08-21T05:57:27.372Z,2.60
2022-08-21T05:59:32.300Z,2.40
2022-08-21T06:01:37.379Z,2.50
2022-08-21T06:03:43.231Z,2.60
2022-08-21T06:05:48.374Z,2.30
2022-08-21T06:07:53.100Z,2.40
2022-08-21T06:09:57.842Z,2.30
2022-08-21T06:12:06.124Z,2.40
2022-08-21T06:14:14.536Z,2.20
2022-08-21T06:16:19.276Z,2.50
2022-08-21T06:18:23.940Z,2.10
2022-08-21T06:20:28.857Z,2.30
2022-08-21T06:22:33.531Z,2.40
2022-08-21T06:24:38.383Z,2.30
2022-08-21T06:26:43.023Z,2.40
2022-08-21T06:28:47.761Z,2.30
2022-08-21T06:30:52.540Z,2.20
2022-08-21T06:32:57.418Z,2.40
2022-08-21T06:35:02.273Z,2.40
2022-08-21T06:37:07.599Z,2.30
2022-08-21T06:39:16.531Z,2.50
2022-08-21T06:41:29.694Z,2.40
2022-08-21T06:43:39.874Z,2.40
2022-08-21T06:45:45.119Z,2.70
2022-08-21T06:47:49.842Z,2.30
2022-08-21T06:49:54.563Z,2.30
2022-08-21T06:51:59.222Z,2.60
2022-08-21T06:54:03.945Z,2.50
2022-08-21T06:56:08.883Z,2.40
2022-08-21T06:58:14.484Z,2.50
2022-08-21T07:00:19.916Z,2.50
2022-08-21T07:02:24.666Z,2.60
2022-08-21T07:04:29.472Z,2.60
2022-08-21T07:06:34.497Z,2.60
2022-08-21T07:08:40.439Z,2.50
2022-08-21T07:10:45.664Z,2.70
2022-08-21T07:12:51.031Z,2.40
2022-08-21T07:15:04.229Z,2.40
2022-08-21T07:17:08.910Z,2.50
2022-08-21T07:19:13.653Z,3.00
2022-08-21T07:21:20.732Z,2.60
2022-08-21T07:23:32.703Z,2.90
2022-08-21T07:25:37.423Z,2.80
2022-08-21T07:27:42.082Z,2.70
2022-08-21T07:29:46.755Z,2.80
2022-08-21T07:31:51.512Z,2.70
2022-08-21T07:33:56.753Z,2.80
2022-08-21T07:36:04.529Z,2.80
2022-08-21T07:38:09.243Z,2.60
2022-08-21T07:40:15.643Z,2.80
2022-08-21T07:42:20.336Z,2.60
2022-08-21T07:44:25.113Z,2.90
2022-08-21T07:46:30.205Z,2.60
2022-08-21T07:48:35.011Z,2.40
2022-08-21T07:50:40.850Z,2.80
2022-08-21T07:52:46.345Z,2.70
2022-08-21T07:54:51.055Z,2.80
2022-08-21T07:56:55.970Z,2.70
2022-08-21T07:59:00.742Z,2.70
2022-08-21T08:01:05.750Z,2.70
2022-08-21T08:03:10.561Z,2.50
2022-08-21T08:05:15.565Z,2.50
2022-08-21T08:07:20.581Z,3.00
2022-08-21T08:09:25.248Z,2.80
2022-08-21T08:11:29.942Z,3.20
2022-08-21T08:13:38.958Z,3.10
2022-08-21T08:15:43.733Z,3.20
2022-08-21T08:17:48.589Z,3.10
2022-08-21T08:19:53.338Z,2.90
2022-08-21T08:22:00.264Z,3.10
2022-08-21T08:24:19.358Z,3.20
2022-08-21T08:26:24.599Z,2.70
2022-08-21T08:28:29.775Z,2.70
2022-08-21T08:30:34.646Z,2.80
2022-08-21T08:32:39.666Z,2.70
2022-08-21T08:34:44.694Z,2.60
2022-08-21T08:36:49.519Z,2.60
2022-08-21T08:38:59.180Z,2.60
2022-08-21T08:41:10.599Z,2.60
2022-08-21T08:43:15.668Z,2.40
2022-08-21T08:45:23.069Z,2.40
2022-08-21T08:47:30.679Z,2.80
2022-08-21T08:49:43.633Z,2.50
2022-08-21T08:51:53.474Z,2.70
2022-08-21T08:54:04.519Z,2.80
2022-08-21T08:56:09.692Z,2.60
2022-08-21T08:58:21.065Z,2.50
2022-08-21T09:00:26.388Z,3.10
2022-08-21T09:02:31.118Z,2.60
2022-08-21T09:04:35.847Z,2.80
2022-08-21T09:07:02.243Z,2.50
2022-08-21T09:09:16.956Z,2.80
2022-08-21T09:11:28.845Z,2.70
2022-08-21T09:13:47.059Z,2.90
2022-08-21T09:16:01.569Z,2.60
2022-08-21T09:18:24.849Z,2.70
2022-08-21T09:20:38.894Z,2.50
2022-08-21T09:22:53.661Z,2.40
2022-08-21T09:25:04.839Z,2.30
2022-08-21T09:27:12.372Z,2.30
2022-08-21T09:29:27.613Z,2.20
2022-08-21T09:31:34.970Z,2.30
2022-08-21T09:33:39.863Z,2.10
2022-08-21T09:35:54.215Z,1.80
2022-08-21T09:38:01.615Z,1.60
2022-08-21T09:40:22.265Z,1.40
2022-08-21T09:42:29.257Z,1.40
2022-08-21T09:44:36.599Z,1.60
2022-08-21T09:46:52.477Z,1.40
2022-08-21T09:48:59.354Z,1.30
2022-08-21T09:51:12.352Z,1.50
2022-08-21T09:53:23.130Z,1.20
2022-08-21T09:55:35.460Z,1.70
2022-08-21T09:57:46.608Z,1.40
2022-08-21T09:59:56.085Z,1.00
2022-08-21T10:02:04.306Z,1.20
2022-08-21T10:04:10.804Z,0.90
2022-08-21T10:06:26.049Z,1.30
2022-08-21T10:08:31.412Z,1.30
2022-08-21T10:10:39.206Z,0.90
2022-08-21T10:12:50.922Z,0.90
2022-08-21T10:15:08.679Z,1.00
2022-08-21T10:17:21.298Z,0.90
2022-08-21T10:19:33.157Z,1.00
2022-08-21T10:21:46.877Z,1.10
2022-08-21T10:24:06.195Z,1.10
2022-08-21T10:26:24.029Z,1.30
2022-08-21T10:28:38.623Z,1.40
2022-08-21T10:30:50.852Z,1.50
2022-08-21T10:33:06.021Z,1.70
2022-08-21T10:35:23.422Z,1.60
2022-08-21T10:37:39.005Z,1.80
2022-08-21T10:39:56.689Z,1.80
2022-08-21T10:42:18.495Z,1.70
2022-08-21T10:44:35.243Z,1.90
2022-08-21T10:46:48.866Z,1.80
2022-08-21T10:49:00.356Z,1.80
2022-08-21T10:51:14.934Z,1.90
2022-08-21T10:53:37.606Z,1.90
2022-08-21T10:55:47.692Z,1.70
2022-08-21T10:57:58.300Z,1.50
2022-08-21T11:00:11.195Z,1.20
2022-08-21T11:02:22.080Z,1.50
2022-08-21T11:04:43.374Z,1.50
2022-08-21T11:07:03.777Z,1.30
2022-08-21T11:09:15.954Z,1.30
2022-08-21T11:11:25.452Z,1.00
2022-08-21T11:13:41.270Z,0.90
2022-08-21T11:15:56.168Z,1.00
2022-08-21T11:18:10.764Z,1.00
2022-08-21T11:20:23.130Z,0.90
2022-08-21T11:22:37.504Z,1.10
2022-08-21T11:24:52.651Z,0.80
2022-08-21T11:27:05.531Z,0.90
2022-08-21T11:29:14.745Z,1.00
2022-08-21T11:31:36.656Z,0.80
2022-08-21T11:33:57.787Z,0.90
2022-08-21T11:36:13.176Z,0.80
2022-08-21T11:38:27.280Z,0.90
2022-08-21T11:40:45.538Z,0.90
2022-08-21T11:42:56.568Z,0.80
2022-08-21T11:45:15.154Z,1.00
2022-08-21T11:47:26.680Z,1.00
2022-08-21T11:49:47.848Z,1.20
2022-08-21T11:52:00.261Z,1.00
2022-08-21T11:54:15.358Z,1.10
2022-08-21T11:56:23.876Z,0.90
2022-08-21T11:58:32.534Z,1.20
2022-08-21T12:00:42.607Z,1.00
2022-08-21T12:02:52.034Z,1.10
2022-08-21T12:05:08.348Z,1.20
2022-08-21T12:07:16.541Z,1.10
2022-08-21T12:09:36.144Z,1.30
2022-08-21T12:11:51.106Z,1.10
2022-08-21T12:14:00.793Z,0.90
2022-08-21T12:16:14.726Z,1.20
2022-08-21T12:18:30.945Z,1.20
2022-08-21T12:20:50.056Z,1.20
2022-08-21T12:23:05.181Z,1.10
2022-08-21T12:25:12.657Z,1.30
2022-08-21T12:27:24.308Z,1.10
2022-08-21T12:29:31.167Z,1.10
2022-08-21T12:31:37.011Z,1.20
2022-08-21T12:33:42.999Z,1.20
2022-08-21T12:35:48.732Z,1.20
2022-08-21T12:38:02.220Z,1.40
2022-08-21T12:40:19.501Z,1.50
2022-08-21T12:42:31.872Z,1.30
2022-08-21T12:44:43.339Z,1.20
2022-08-21T12:46:57.729Z,1.10
2022-08-21T12:49:09.105Z,1.20
2022-08-21T12:51:17.131Z,1.20
2022-08-21T12:53:31.535Z,1.20
2022-08-21T12:55:41.296Z,1.30
2022-08-21T12:57:46.075Z,1.40
2022-08-21T12:59:54.819Z,1.20
2022-08-21T13:02:02.517Z,1.30
2022-08-21T13:04:11.967Z,1.30
2022-08-21T13:06:19.741Z,1.40
2022-08-21T13:08:27.604Z,1.40
2022-08-21T13:10:34.660Z,1.20
2022-08-21T13:12:39.643Z,1.30
2022-08-21T13:14:47.606Z,1.20
2022-08-21T13:16:56.534Z,1.50
2022-08-21T13:19:04.504Z,1.20
2022-08-21T13:21:14.185Z,1.40
2022-08-21T13:23:25.059Z,1.30
2022-08-21T13:25:36.212Z,1.40
2022-08-21T13:27:40.965Z,1.30
2022-08-21T13:29:48.418Z,1.60
2022-08-21T13:32:02.339Z,1.50
2022-08-21T13:34:07.715Z,1.40
2022-08-21T13:36:19.290Z,1.50
2022-08-21T13:38:28.240Z,1.40
2022-08-21T13:40:47.642Z,1.40
2022-08-21T13:42:53.512Z,1.40
2022-08-21T13:44:58.212Z,1.50
2022-08-21T13:47:04.530Z,1.60
2022-08-21T13:49:13.674Z,1.30
2022-08-21T13:51:18.731Z,1.70
2022-08-21T13:53:30.803Z,1.70
2022-08-21T13:55:41.478Z,1.70
2022-08-21T13:57:46.536Z,1.50
2022-08-21T13:59:51.221Z,1.70
2022-08-21T14:01:59.680Z,1.80
2022-08-21T14:04:19.501Z,1.80
2022-08-21T14:06:27.144Z,1.80
2022-08-21T14:08:36.906Z,1.80
2022-08-21T14:10:48.687Z,1.90
2022-08-21T14:13:02.734Z,2.00
2022-08-21T14:15:10.440Z,1.90
2022-08-21T14:17:29.142Z,2.00
2022-08-21T14:19:43.920Z,2.00
2022-08-21T14:21:48.928Z,2.10
2022-08-21T14:24:06.668Z,1.90
2022-08-21T14:26:11.509Z,2.10
2022-08-21T14:28:27.094Z,1.80
2022-08-21T14:30:36.209Z,2.10
2022-08-21T14:32:44.874Z,1.90
2022-08-21T14:34:50.776Z,2.10
2022-08-21T14:36:56.045Z,2.00
2022-08-21T14:39:00.798Z,2.00
2022-08-21T14:41:16.023Z,1.90
2022-08-21T14:43:21.474Z,2.10
2022-08-21T14:45:31.637Z,2.00
2022-08-21T14:47:36.445Z,2.10
2022-08-21T14:49:41.152Z,2.10
2022-08-21T14:51:54.094Z,2.10
2022-08-21T14:53:59.358Z,2.20
2022-08-21T14:56:04.462Z,2.10
2022-08-21T14:58:09.192Z,2.10
2022-08-21T15:00:16.138Z,2.10
2022-08-21T15:02:20.777Z,2.20
2022-08-21T15:04:25.944Z,2.10
2022-08-21T15:06:30.690Z,2.40
2022-08-21T15:08:35.439Z,2.50
2022-08-21T15:10:57.023Z,2.20
2022-08-21T15:13:06.203Z,2.50
2022-08-21T15:15:11.651Z,2.30
2022-08-21T15:17:16.408Z,2.50
2022-08-21T15:19:24.373Z,2.30
2022-08-21T15:21:29.134Z,2.50
2022-08-21T15:23:33.908Z,2.40
2022-08-21T15:25:41.310Z,2.50
2022-08-21T15:27:46.031Z,2.40
2022-08-21T15:29:50.845Z,2.40
2022-08-21T15:31:58.410Z,2.40
2022-08-21T15:34:03.525Z,2.60
2022-08-21T15:36:08.975Z,2.60
2022-08-21T15:38:14.011Z,2.40
2022-08-21T15:40:19.284Z,2.50
2022-08-21T15:42:25.498Z,2.30
2022-08-21T15:44:31.089Z,2.60
2022-08-21T15:46:35.760Z,2.60
2022-08-21T15:48:41.004Z,2.50
2022-08-21T15:50:45.808Z,2.60
2022-08-21T15:52:51.878Z,2.60
2022-08-21T15:54:56.650Z,2.70
2022-08-21T15:57:01.458Z,2.40
2022-08-21T15:59:09.518Z,2.60
2022-08-21T16:01:14.285Z,2.60
2022-08-21T16:03:20.172Z,2.50
2022-08-21T16:05:26.022Z,2.40
2022-08-21T16:07:31.264Z,2.50
2022-08-21T16:09:36.027Z,2.50
2022-08-21T16:11:41.071Z,2.40
2022-08-21T16:13:48.144Z,2.50
2022-08-21T16:15:53.301Z,3.20
2022-08-21T16:17:59.061Z,3.30
2022-08-21T16:20:08.008Z,3.90
2022-08-21T16:22:12.826Z,3.10
2022-08-21T16:24:17.642Z,3.30
2022-08-21T16:26:22.452Z,3.20
2022-08-21T16:28:28.717Z,3.20
2022-08-21T16:30:33.503Z,3.20
2022-08-21T16:32:38.486Z,3.00
2022-08-21T16:34:47.569Z,2.90
2022-08-21T16:36:52.420Z,2.70
2022-08-21T16:38:58.315Z,2.70
2022-08-21T16:41:03.126Z,3.70
2022-08-21T16:43:10.228Z,3.10
2022-08-21T16:45:18.460Z,3.20
2022-08-21T16:47:26.901Z,4.30
2022-08-21T16:49:35.668Z,3.50
2022-08-21T16:51:40.569Z,3.40
2022-08-21T16:53:48.405Z,4.00
2022-08-21T16:55:53.770Z,3.00
2022-08-21T16:57:58.653Z,3.20
2022-08-21T17:00:05.423Z,2.80
2022-08-21T17:02:24.806Z,2.70
2022-08-21T17:04:29.526Z,2.60
2022-08-21T17:06:34.546Z,3.20
2022-08-21T17:08:39.735Z,2.70
2022-08-21T17:10:48.168Z,3.10
2022-08-21T17:12:56.087Z,2.90
2022-08-21T17:15:06.530Z,3.00
2022-08-21T17:17:12.185Z,2.60
2022-08-21T17:19:17.025Z,2.90
2022-08-21T17:21:21.729Z,3.00
2022-08-21T17:23:26.399Z,2.80
2022-08-21T17:25:31.325Z,2.90
2022-08-21T17:27:36.211Z,2.90
2022-08-21T17:29:42.084Z,2.70
2022-08-21T17:31:47.317Z,2.70
2022-08-21T17:33:54.068Z,2.70
2022-08-21T17:36:01.338Z,2.80
2022-08-21T17:38:06.186Z,3.00
2022-08-21T17:40:13.460Z,2.70
2022-08-21T17:42:18.278Z,2.90
2022-08-21T17:44:23.311Z,2.60
2022-08-21T17:46:29.426Z,2.60
2022-08-21T17:48:34.819Z,2.90
2022-08-21T17:50:40.313Z,2.90
2022-08-21T17:52:45.206Z,2.70
2022-08-21T17:54:49.983Z,2.60
2022-08-21T17:56:56.395Z,2.60
2022-08-21T17:59:05.481Z,2.90
2022-08-21T18:01:12.500Z,2.80
2022-08-21T18:03:20.413Z,2.70
2022-08-21T18:05:25.182Z,2.80
2022-08-21T18:07:32.595Z,2.80
2022-08-21T18:09:40.721Z,2.70
2022-08-21T18:11:45.956Z,2.70
2022-08-21T18:13:51.966Z,2.60
2022-08-21T18:15:58.753Z,2.70
2022-08-21T18:18:06.562Z,2.70
2022-08-21T18:20:13.142Z,2.40
2022-08-21T18:22:18.272Z,2.70
2022-08-21T18:24:24.062Z,2.50
2022-08-21T18:26:31.233Z,2.80
2022-08-21T18:28:37.840Z,2.40
2022-08-21T18:30:44.369Z,2.60
2022-08-21T18:32:49.828Z,2.90
2022-08-21T18:34:57.418Z,2.50
2022-08-21T18:37:02.593Z,2.50
2022-08-21T18:39:34.375Z,2.90
2022-08-21T18:41:32.405Z,2.60
2022-08-21T18:43:37.503Z,2.40
2022-08-21T18:45:42.483Z,2.60
2022-08-21T18:47:50.438Z,2.70
2022-08-21T18:49:55.773Z,2.80
2022-08-21T18:52:06.592Z,2.50
2022-08-21T18:56:36.904Z,2.90
2022-08-21T18:58:43.768Z,2.70
2022-08-21T19:00:50.966Z,2.50
2022-08-21T19:02:59.882Z,2.80
2022-08-21T19:05:06.152Z,2.70
2022-08-21T19:07:11.215Z,2.30
2022-08-21T19:09:15.938Z,2.90
2022-08-21T19:11:23.199Z,2.80
2022-08-21T19:13:30.453Z,2.70
2022-08-21T19:15:37.536Z,2.40
2022-08-21T19:17:43.383Z,2.80
2022-08-21T19:19:48.861Z,2.70
2022-08-21T19:21:57.148Z,2.40
2022-08-21T19:24:17.460Z,2.70
2022-08-21T19:26:25.635Z,2.60
2022-08-21T19:28:33.382Z,2.80
2022-08-21T19:30:41.253Z,2.70
2022-08-21T19:32:48.072Z,2.80
2022-08-21T19:34:53.277Z,2.60
2022-08-21T19:37:04.459Z,2.50
2022-08-21T19:39:12.837Z,2.50
2022-08-21T19:41:20.048Z,2.50
2022-08-21T19:43:25.937Z,2.70
2022-08-21T19:45:37.253Z,2.70
2022-08-21T19:47:52.288Z,2.30
2022-08-21T19:50:01.178Z,2.90
2022-08-21T19:54:36.502Z,2.80
2022-08-21T19:56:41.758Z,2.70
2022-08-21T19:58:48.061Z,3.10
2022-08-21T20:00:56.100Z,2.80
2022-08-21T20:03:01.837Z,3.00
2022-08-21T20:05:08.574Z,3.00
2022-08-21T20:07:14.085Z,3.20
2022-08-21T20:09:19.856Z,3.00
2022-08-21T20:11:31.415Z,2.90
2022-08-21T20:13:38.324Z,2.80
2022-08-21T20:15:48.505Z,2.70
2022-08-21T20:17:53.654Z,2.90
2022-08-21T20:19:58.683Z,3.00
2022-08-21T20:22:04.095Z,3.00
2022-08-21T20:24:09.896Z,2.90
2022-08-21T20:26:14.981Z,2.90
2022-08-21T20:28:20.123Z,3.10
2022-08-21T20:30:26.812Z,2.50
2022-08-21T20:32:32.377Z,2.70
2022-08-21T20:34:41.292Z,2.80
2022-08-21T20:36:49.992Z,3.00
2022-08-21T20:39:01.150Z,2.70
2022-08-21T20:41:21.111Z,2.90
2022-08-21T20:43:34.444Z,2.70
2022-08-21T20:45:43.237Z,2.70
2022-08-21T20:47:52.560Z,3.10
2022-08-21T20:50:02.457Z,2.80
2022-08-21T20:52:08.864Z,3.00
2022-08-21T20:54:25.582Z,3.30
2022-08-21T20:56:45.227Z,3.10
2022-08-21T20:59:01.429Z,3.20
2022-08-21T21:01:09.567Z,3.00
2022-08-21T21:03:17.345Z,3.40
2022-08-21T21:05:29.837Z,2.90
2022-08-21T21:07:41.327Z,3.30
2022-08-21T21:09:50.754Z,3.20
2022-08-21T21:12:00.339Z,3.10
2022-08-21T21:14:09.899Z,2.90
2022-08-21T21:16:19.370Z,3.10
2022-08-21T21:18:31.385Z,3.20
2022-08-21T21:20:46.023Z,3.70
2022-08-21T21:22:55.305Z,3.70
2022-08-21T21:25:08.613Z,3.50
2022-08-21T21:27:22.841Z,3.50
2022-08-21T21:29:32.579Z,3.60
2022-08-21T21:31:37.692Z,3.20
2022-08-21T21:33:42.580Z,3.50
2022-08-21T21:35:51.630Z,3.80
2022-08-21T21:38:02.102Z,4.10
2022-08-21T21:40:26.211Z,3.70
2022-08-21T21:42:42.578Z,4.00
2022-08-21T21:45:03.654Z,4.20
2022-08-21T21:47:17.853Z,4.00
2022-08-21T21:49:37.623Z,4.10
2022-08-21T21:52:00.186Z,4.10
2022-08-21T21:54:16.334Z,4.10
2022-08-21T21:56:30.833Z,4.30
2022-08-21T21:58:55.134Z,4.50
2022-08-21T22:01:07.620Z,4.30
2022-08-21T22:03:22.694Z,4.40
2022-08-21T22:05:45.303Z,4.60
2022-08-21T22:07:55.070Z,4.40
2022-08-21T22:10:30.181Z,4.50
2022-08-21T22:12:42.112Z,4.30
2022-08-21T22:14:54.290Z,4.20
2022-08-21T22:17:07.093Z,4.10
2022-08-21T22:19:18.192Z,4.10
2022-08-21T22:21:29.957Z,4.50
2022-08-21T22:23:43.889Z,4.30
2022-08-21T22:25:55.892Z,4.30
2022-08-21T22:28:06.037Z,4.40
2022-08-21T22:30:16.811Z,4.30
2022-08-21T22:32:28.211Z,4.40
2022-08-21T22:34:33.088Z,4.40
2022-08-21T22:36:43.183Z,4.20
2022-08-21T22:38:48.070Z,4.60
2022-08-21T22:41:11.680Z,4.80
2022-08-21T22:43:22.076Z,4.80
2022-08-21T22:45:27.193Z,4.50
2022-08-21T22:47:37.256Z,4.50
2022-08-21T22:49:46.883Z,4.60
2022-08-21T22:52:05.352Z,4.00
2022-08-21T22:54:21.976Z,4.70
2022-08-21T22:56:34.103Z,4.20
2022-08-21T22:58:53.931Z,4.30
2022-08-21T23:01:02.522Z,3.30
2022-08-21T23:03:17.316Z,3.40
2022-08-21T23:05:35.813Z,3.20
2022-08-21T23:07:44.466Z,2.70
2022-08-21T23:09:54.603Z,2.70
2022-08-21T23:12:21.276Z,2.70
2022-08-21T23:14:30.543Z,2.60
2022-08-21T23:16:47.541Z,2.30
2022-08-21T23:19:02.778Z,2.50
2022-08-21T23:21:17.159Z,2.50
2022-08-21T23:23:25.617Z,2.50
2022-08-21T23:25:58.366Z,2.30
2022-08-21T23:28:12.251Z,2.50
2022-08-21T23:30:31.112Z,2.30
2022-08-21T23:33:00.400Z,2.50
2022-08-21T23:35:14.802Z,2.30
2022-08-21T23:37:49.472Z,2.70
2022-08-21T23:40:11.328Z,2.50
2022-08-21T23:42:34.124Z,2.80
2022-08-21T23:44:48.415Z,3.10
2022-08-21T23:47:08.340Z,2.90
2022-08-21T23:49:25.514Z,2.80
2022-08-21T23:51:38.180Z,2.60
2022-08-21T23:53:55.865Z,3.00
2022-08-21T23:56:13.952Z,2.90
2022-08-21T23:58:29.537Z,3.00
